createdAt,value
2022-09-10T00:01:28.814Z,11.18
2022-09-10T00:06:28.751Z,9.5
2022-09-10T00:11:28.758Z,8.91
2022-09-10T00:16:28.851Z,8.94
2022-09-10T00:21:28.789Z,9.31
2022-09-10T00:26:28.790Z,9.54
2022-09-10T00:31:28.830Z,10.36
2022-09-10T00:36:28.767Z,9.11
2022-09-10T00:41:28.770Z,10.31
2022-09-10T00:46:28.794Z,10.5
2022-09-10T00:51:28.811Z,10.77
2022-09-10T00:56:28.778Z,11.73
2022-09-10T01:01:28.776Z,9.64
2022-09-10T01:06:28.782Z,10.78
2022-09-10T01:11:28.781Z,10.75
2022-09-10T01:16:28.852Z,11.18
2022-09-10T01:21:28.822Z,9.62
2022-09-10T01:26:28.815Z,10.62
2022-09-10T01:31:28.841Z,10.27
2022-09-10T01:36:28.785Z,10.01
2022-09-10T01:41:28.846Z,10.05
2022-09-10T01:46:28.797Z,10.55
2022-09-10T01:51:28.834Z,10.35
2022-09-10T01:56:28.804Z,10.43
2022-09-10T02:01:28.832Z,9.37
2022-09-10T02:06:28.838Z,10.15
2022-09-10T02:11:28.847Z,8.75
2022-09-10T02:16:28.874Z,8.52
2022-09-10T02:21:28.829Z,8.21
2022-09-10T02:26:28.876Z,8.47
2022-09-10T02:31:28.939Z,7.94
2022-09-10T02:36:28.821Z,6.55
2022-09-10T02:41:28.851Z,6.88
2022-09-10T02:46:28.848Z,6.53
2022-09-10T02:51:28.834Z,6.8
2022-09-10T02:56:28.858Z,6.72
2022-09-10T03:01:28.923Z,6.59
2022-09-10T03:06:28.868Z,7.07
2022-09-10T03:11:28.861Z,7.43
2022-09-10T03:16:28.860Z,6.58
2022-09-10T03:21:28.882Z,6.11
2022-09-10T03:26:28.874Z,5.82
2022-09-10T03:31:28.906Z,6.16
2022-09-10T03:36:28.887Z,6.01
2022-09-10T03:41:28.886Z,5.67
2022-09-10T03:46:28.868Z,6.53
2022-09-10T03:51:28.862Z,6.43
2022-09-10T03:56:28.864Z,6.68
2022-09-10T04:01:28.895Z,6.96
2022-09-10T04:06:28.864Z,6.64
2022-09-10T04:11:28.907Z,6.2
2022-09-10T04:16:28.950Z,6.15
2022-09-10T04:21:28.909Z,6.02
2022-09-10T04:26:28.915Z,5.76
2022-09-10T04:31:28.949Z,6.81
2022-09-10T04:36:28.881Z,6.53
2022-09-10T04:41:28.883Z,6.09
2022-09-10T04:46:28.921Z,7.05
2022-09-10T04:51:28.920Z,6.51
2022-09-10T04:56:28.895Z,6.39
2022-09-10T05:01:28.950Z,6.29
2022-09-10T05:06:28.896Z,6.77
2022-09-10T05:11:28.900Z,7.41
2022-09-10T05:16:28.952Z,6.96
2022-09-10T05:21:28.951Z,5.74
2022-09-10T05:26:28.937Z,6.27
2022-09-10T05:31:28.982Z,5.84
2022-09-10T05:36:28.935Z,5.93
2022-09-10T05:41:28.941Z,6.42
2022-09-10T05:46:28.918Z,5.68
2022-09-10T05:51:28.914Z,5.78
2022-09-10T05:56:28.920Z,6.59
2022-09-10T06:01:28.924Z,6.1
2022-09-10T06:06:28.924Z,5.57
2022-09-10T06:11:28.959Z,5.62
2022-09-10T06:16:28.972Z,7.12
2022-09-10T06:21:28.951Z,6.4
2022-09-10T06:26:28.972Z,5.23
2022-09-10T06:31:28.935Z,5.05
2022-09-10T06:36:28.962Z,5.15
2022-09-10T06:41:28.941Z,5.19
2022-09-10T06:47:03.096Z,5.16
2022-09-10T06:51:28.937Z,5.38
2022-09-10T06:56:28.977Z,5.18
2022-09-10T07:01:29.001Z,7.68
2022-09-10T07:06:28.980Z,9.3
2022-09-10T07:11:28.991Z,8.31
2022-09-10T07:16:28.955Z,4.99
2022-09-10T07:21:29.036Z,4.64
2022-09-10T07:26:28.954Z,5.01
2022-09-10T07:31:29.000Z,4.91
2022-09-10T07:36:28.975Z,5.34
2022-09-10T07:41:29.004Z,4.94
2022-09-10T07:46:28.958Z,4.86
2022-09-10T07:51:29.007Z,5.12
2022-09-10T07:56:29.007Z,5.21
2022-09-10T08:01:29.000Z,5.72
2022-09-10T08:06:29.015Z,5.03
2022-09-10T08:11:29.014Z,5.3
2022-09-10T08:16:29.026Z,5.71
2022-09-10T08:21:28.996Z,6.61
2022-09-10T08:26:29.026Z,6
2022-09-10T08:31:29.003Z,6.61
2022-09-10T08:36:29.026Z,6.35
2022-09-10T08:41:28.995Z,6.25
2022-09-10T08:46:29.023Z,5.62
2022-09-10T08:51:29.038Z,5.64
2022-09-10T08:56:29.008Z,6.3
2022-09-10T09:01:29.053Z,6.62
2022-09-10T09:06:29.018Z,6.66
2022-09-10T09:11:29.029Z,5.15
2022-09-10T09:16:29.017Z,5.01
2022-09-10T09:21:29.038Z,4.51
2022-09-10T09:26:29.024Z,4.94
2022-09-10T09:31:29.187Z,4.26
2022-09-10T09:36:29.042Z,4.3
2022-09-10T09:41:29.041Z,4.24
2022-09-10T09:46:29.032Z,3.79
2022-09-10T09:51:29.087Z,4.35
2022-09-10T09:56:29.062Z,5.43
2022-09-10T10:01:29.066Z,6.3
2022-09-10T10:06:29.096Z,4.83
2022-09-10T10:11:29.035Z,5.09
2022-09-10T10:16:29.083Z,5.25
2022-09-10T10:21:29.075Z,4.87
2022-09-10T10:26:29.069Z,4.07
2022-09-10T10:31:29.048Z,4.21
2022-09-10T10:36:29.049Z,4.19
2022-09-10T10:41:29.095Z,3.96
2022-09-10T10:46:29.082Z,4.02
2022-09-10T10:51:29.085Z,4.05
2022-09-10T10:56:29.100Z,3.56
2022-09-10T11:01:29.144Z,3.81
2022-09-10T11:06:29.079Z,3.39
2022-09-10T11:11:29.091Z,3.59
2022-09-10T11:16:29.062Z,3.46
2022-09-10T11:21:29.111Z,3.57
2022-09-10T11:26:29.076Z,3.31
2022-09-10T11:31:29.136Z,2.96
2022-09-10T11:36:29.075Z,3.01
2022-09-10T11:41:29.112Z,2.54
2022-09-10T11:46:29.145Z,2.7
2022-09-10T11:51:29.105Z,3.13
2022-09-10T11:56:29.075Z,3.76
2022-09-10T12:01:29.096Z,3.08
2022-09-10T12:06:29.136Z,3.38
2022-09-10T12:11:29.104Z,2.71
2022-09-10T12:16:29.103Z,2.65
2022-09-10T12:21:29.109Z,2.4
2022-09-10T12:26:29.108Z,2.13
2022-09-10T12:31:29.153Z,3.01
2022-09-10T12:36:29.114Z,2.18
2022-09-10T12:41:29.122Z,2.27
2022-09-10T12:46:29.176Z,2.81
2022-09-10T12:51:29.169Z,2.75
2022-09-10T12:56:29.159Z,3.02
2022-09-10T13:01:29.203Z,2.39
2022-09-10T13:06:29.131Z,2.79
2022-09-10T13:11:29.166Z,2.91
2022-09-10T13:16:29.173Z,2.51
2022-09-10T13:21:29.130Z,3.11
2022-09-10T13:26:29.136Z,3.18
2022-09-10T13:31:29.184Z,3.6
2022-09-10T13:36:29.143Z,3.48
2022-09-10T13:41:29.182Z,3.75
2022-09-10T13:46:29.160Z,4.07
2022-09-10T13:51:29.147Z,5.04
2022-09-10T13:56:29.156Z,4.16
2022-09-10T14:01:29.198Z,3.35
2022-09-10T14:06:29.165Z,4.81
2022-09-10T14:11:29.163Z,3.08
2022-09-10T14:16:30.295Z,3.43
2022-09-10T14:21:29.172Z,3.31
2022-09-10T14:26:29.161Z,3.36
2022-09-10T14:31:29.170Z,4
2022-09-10T14:36:29.206Z,4.35
2022-09-10T14:41:29.200Z,3.67
2022-09-10T14:46:29.217Z,3.3
2022-09-10T14:51:29.190Z,3.53
2022-09-10T14:56:29.182Z,4.37
2022-09-10T15:01:29.235Z,3.35
2022-09-10T15:11:29.216Z,3.58
2022-09-10T15:16:29.225Z,4.42
2022-09-10T15:21:29.228Z,4.92
2022-09-10T15:26:29.189Z,4.7
2022-09-10T15:31:32.572Z,4.52
2022-09-10T15:36:29.237Z,6.66
2022-09-10T15:41:29.229Z,9.4
2022-09-10T15:46:29.265Z,17.05
2022-09-10T15:51:29.206Z,17.07
2022-09-10T15:56:29.219Z,23.29
2022-09-10T16:01:29.328Z,15.01
2022-09-10T16:06:29.238Z,12.37
2022-09-10T16:11:29.211Z,44.8
2022-09-10T16:16:29.279Z,20.76
2022-09-10T16:21:29.252Z,36.16
2022-09-10T16:26:29.286Z,21.07
2022-09-10T16:36:29.287Z,16.61
2022-09-10T16:41:29.240Z,31.72
2022-09-10T16:46:29.402Z,21.5
2022-09-10T16:51:29.244Z,19.97
2022-09-10T16:56:29.276Z,20.27
2022-09-10T17:01:29.290Z,33
2022-09-10T17:06:29.256Z,19.3
2022-09-10T17:11:29.277Z,21.71
2022-09-10T17:16:29.274Z,18.57
2022-09-10T17:21:29.260Z,10.7
2022-09-10T17:26:29.284Z,8.18
2022-09-10T17:31:29.333Z,7.52
2022-09-10T17:36:29.295Z,9.54
2022-09-10T17:41:29.304Z,10.31
2022-09-10T17:46:29.315Z,9.22
2022-09-10T17:51:29.275Z,10.01
2022-09-10T17:56:29.300Z,11.72
2022-09-10T18:01:29.340Z,9.82
2022-09-10T18:06:29.473Z,9.16
2022-09-10T18:11:29.282Z,8.78
2022-09-10T18:16:29.280Z,7.03
2022-09-10T18:21:29.323Z,6.87
2022-09-10T18:26:29.325Z,7.75
2022-09-10T18:31:29.339Z,9.08
2022-09-10T18:36:29.356Z,7.46
2022-09-10T18:41:29.318Z,6.45
2022-09-10T18:46:29.332Z,6.98
2022-09-10T18:51:29.306Z,5.75
2022-09-10T18:56:29.310Z,5.49
2022-09-10T19:01:29.441Z,5.78
2022-09-10T19:06:29.300Z,6.16
2022-09-10T19:11:29.330Z,6.41
2022-09-10T19:16:29.342Z,6.65
2022-09-10T19:21:29.320Z,5.95
2022-09-10T19:26:29.347Z,5.03
2022-09-10T19:31:29.427Z,5.22
2022-09-10T19:36:29.329Z,6.27
2022-09-10T19:41:29.330Z,6.11
2022-09-10T19:46:29.418Z,5.61
2022-09-10T19:56:29.364Z,6.15
2022-09-10T20:01:29.398Z,6.12
2022-09-10T20:06:29.372Z,6.45
2022-09-10T20:11:29.357Z,6.32
2022-09-10T20:16:29.439Z,6.55
2022-09-10T20:21:29.375Z,6.44
2022-09-10T20:26:29.366Z,6.79
2022-09-10T20:31:29.402Z,6.45
2022-09-10T20:36:29.342Z,6.37
2022-09-10T20:41:29.355Z,6.44
2022-09-10T20:46:29.425Z,6.14
2022-09-10T20:51:29.357Z,6.25
2022-09-10T20:56:29.379Z,5.99
2022-09-10T21:01:29.389Z,6.8
2022-09-10T21:06:29.362Z,6.42
2022-09-10T21:11:29.396Z,5.76
2022-09-10T21:16:29.387Z,6.07
2022-09-10T21:21:29.365Z,6.08
2022-09-10T21:26:29.402Z,6.51
2022-09-10T21:31:29.412Z,6.7
2022-09-10T21:36:29.404Z,6.52
2022-09-10T21:41:29.381Z,6.47
2022-09-10T21:46:29.482Z,5.91
2022-09-10T21:51:46.979Z,5.59
2022-09-10T21:56:46.942Z,5.18
2022-09-10T22:01:47.047Z,4.88
2022-09-10T22:06:46.957Z,4.67
2022-09-10T22:11:47.009Z,4.55
2022-09-10T22:16:46.981Z,4.6
2022-09-10T22:21:46.944Z,4.99
2022-09-10T22:26:46.944Z,5.43
2022-09-10T22:31:47.017Z,5.32
2022-09-10T22:36:46.974Z,4.98
2022-09-10T22:41:46.959Z,5.05
2022-09-10T22:46:46.999Z,4.99
2022-09-10T22:51:46.971Z,4.89
2022-09-10T22:56:46.960Z,4.68
2022-09-10T23:01:47.029Z,4.64
2022-09-10T23:06:46.976Z,4.18
2022-09-10T23:11:47.009Z,3.67
2022-09-10T23:16:46.969Z,3.4
2022-09-10T23:21:46.986Z,3.5
2022-09-10T23:26:46.985Z,4.27
2022-09-10T23:31:47.023Z,4.11
2022-09-10T23:36:46.979Z,3.84
2022-09-10T23:41:46.991Z,4.12
2022-09-10T23:46:47.048Z,3.61
2022-09-10T23:51:46.998Z,3.72
2022-09-10T23:56:46.990Z,3.45
